Test XHTML 1.0 Strict Page for WU-History Testing
Station Historical Data
 
Daily Summary for August 20, 2017 Units:  Both    English   Metric
« Previous Day
Next Day »
Daily Weekly Monthly Yearly Custom
  Current: High: Low: Average:
Temperature: 55.2 °F /  12.9 °C 55.2 °F /  12.9 °C 47.8 °F /  8.8 °C 50.2 °F /  10.1 °C
Dew Point: 54.4 °F /  12.4 °C 54.7 °F /  12.6 °C 47.8 °F /  8.8 °C 50.2 °F /  10.1 °C
Humidity: 97 % 100 % 97 % 100 %
Wind Speed: 2.5 mph /  4 km/h 8.0 mph /  12.9 km/h - 0.5 mph /  0.8 km/h
Wind Gust: 2.5 mph /  4 km/h 8.0 mph /  12.9 km/h - -
Wind:West - - WSW
Pressure: 30.18 in /  1021.9 hPa 30.19 in /  1022.2 hPa 30.09 in /  1018.8 hPa -
Precipitation: 0.00 in /  0 mm      
Historical Graphs
 
 
Weather-Above Climate History
Untitled
Tabular Data for August 20, 2017
Time Temperature Dew Point Pressure Wind Wind Speed Wind Gust Humidity Rainfall Rate (Hourly) solar Conditions
00:01 51.8 °F /  11 °C 51.8 °F /  11 °C 30.10 in /  1019.2 hPa Calm     100 % 0.00 in /  0 mm 0.0 W/m2 CLR
00:06 51.6 °F /  10.9 °C 51.6 °F /  10.9 °C 30.09 in /  1018.8 hPa Calm     100 % 0.00 in /  0 mm 0.0 W/m2 CLR
00:11 51.4 °F /  10.8 °C 51.4 °F /  10.8 °C 30.09 in /  1018.8 hPa Calm     100 % 0.00 in /  0 mm 20.0 W/m2 CLR
00:16 51.3 °F /  10.7 °C 51.3 °F /  10.7 °C 30.09 in /  1018.8 hPa WSW 1.2 mph /  1.9 km/h 1.2 mph /  1.9 km/h 100 % 0.00 in /  0 mm 0.0 W/m2 CLR
00:21 51.6 °F /  10.9 °C 51.6 °F /  10.9 °C 30.09 in /  1018.8 hPa Calm     100 % 0.00 in /  0 mm 17.5 W/m2 CLR
00:26 51.6 °F /  10.9 °C 51.6 °F /  10.9 °C 30.09 in /  1018.8 hPa Calm     100 % 0.00 in /  0 mm 17.5 W/m2
00:31 52.2 °F /  11.2 °C 52.2 °F /  11.2 °C 30.11 in /  1019.5 hPa WSW 3.5 mph /  5.6 km/h 3.5 mph /  5.6 km/h 100 % 0.00 in /  0 mm 0.0 W/m2
00:36 52.5 °F /  11.4 °C 52.5 °F /  11.4 °C 30.09 in /  1018.8 hPa Calm     100 % 0.00 in /  0 mm 0.0 W/m2 CLR
00:41 52.3 °F /  11.3 °C 52.3 °F /  11.3 °C 30.09 in /  1018.8 hPa Calm     100 % 0.00 in /  0 mm 20.0 W/m2 CLR
00:46 52.0 °F /  11.1 °C 52.0 °F /  11.1 °C 30.09 in /  1018.8 hPa WNW 4.6 mph /  7.4 km/h 4.6 mph /  7.4 km/h 100 % 0.00 in /  0 mm 0.0 W/m2 CLR
00:51 52.3 °F /  11.3 °C 52.3 °F /  11.3 °C 30.11 in /  1019.5 hPa WNW 8.0 mph /  12.9 km/h 8.0 mph /  12.9 km/h 100 % 0.00 in /  0 mm 0.0 W/m2 CLR
00:57 52.0 °F /  11.1 °C 52.0 °F /  11.1 °C 30.09 in /  1018.8 hPa Calm     100 % 0.00 in /  0 mm 17.5 W/m2 CLR
01:02 51.6 °F /  10.9 °C 51.6 °F /  10.9 °C 30.10 in /  1019.2 hPa Calm     100 % 0.00 in /  0 mm 0.0 W/m2 RA
01:07 51.3 °F /  10.7 °C 51.3 °F /  10.7 °C 30.10 in /  1019.2 hPa Calm     100 % 0.00 in /  0 mm 17.5 W/m2 RA
01:12 51.1 °F /  10.6 °C 51.1 °F /  10.6 °C 30.10 in /  1019.2 hPa SW 2.3 mph /  3.7 km/h 2.3 mph /  3.7 km/h 100 % 0.00 in /  0 mm 0.0 W/m2 CLR
01:17 51.3 °F /  10.7 °C 51.3 °F /  10.7 °C 30.09 in /  1018.8 hPa SW 1.2 mph /  1.9 km/h   100 % 0.00 in /  0 mm 17.5 W/m2 CLR
01:22 50.9 °F /  10.5 °C 50.9 °F /  10.5 °C 30.09 in /  1018.8 hPa Calm     100 % 0.00 in /  0 mm 20.0 W/m2 CLR
01:27 50.9 °F /  10.5 °C 50.9 °F /  10.5 °C 30.10 in /  1019.2 hPa Calm     100 % 0.00 in /  0 mm 0.0 W/m2 CLR
01:32 50.7 °F /  10.4 °C 50.7 °F /  10.4 °C 30.10 in /  1019.2 hPa Calm     100 % 0.00 in /  0 mm 20.0 W/m2 CLR
01:37 50.5 °F /  10.3 °C 50.5 °F /  10.3 °C 30.09 in /  1018.8 hPa Calm     100 % 0.00 in /  0 mm 22.5 W/m2 CLR
01:42 50.7 °F /  10.4 °C 50.7 °F /  10.4 °C 30.11 in /  1019.5 hPa Calm     100 % 0.00 in /  0 mm 0.0 W/m2 CLR
01:47 50.7 °F /  10.4 °C 50.7 °F /  10.4 °C 30.11 in /  1019.5 hPa West 2.3 mph /  3.7 km/h   100 % 0.00 in /  0 mm 20.0 W/m2 CLR
01:52 50.4 °F /  10.2 °C 50.4 °F /  10.2 °C 30.10 in /  1019.2 hPa Calm     100 % 0.00 in /  0 mm 17.5 W/m2 CLR
01:57 49.8 °F /  9.9 °C 49.8 °F /  9.9 °C 30.11 in /  1019.5 hPa Calm     100 % 0.00 in /  0 mm 0.0 W/m2 CLR
02:02 49.8 °F /  9.9 °C 49.8 °F /  9.9 °C 30.11 in /  1019.5 hPa Calm     100 % 0.00 in /  0 mm 17.5 W/m2 CLR
02:07 49.5 °F /  9.7 °C 49.5 °F /  9.7 °C 30.11 in /  1019.5 hPa Calm     100 % 0.00 in /  0 mm 15.0 W/m2 CLR
02:12 49.6 °F /  9.8 °C 49.6 °F /  9.8 °C 30.11 in /  1019.5 hPa Calm     100 % 0.00 in /  0 mm 0.0 W/m2 CLR
02:17 49.5 °F /  9.7 °C 49.5 °F /  9.7 °C 30.11 in /  1019.5 hPa Calm     100 % 0.00 in /  0 mm 17.5 W/m2 CLR
02:22 49.5 °F /  9.7 °C 49.5 °F /  9.7 °C 30.11 in /  1019.5 hPa Calm     100 % 0.00 in /  0 mm 17.5 W/m2 CLR
02:27 49.3 °F /  9.6 °C 49.3 °F /  9.6 °C 30.11 in /  1019.5 hPa Calm     100 % 0.00 in /  0 mm 0.0 W/m2 CLR
02:32 49.3 °F /  9.6 °C 49.3 °F /  9.6 °C 30.11 in /  1019.5 hPa Calm     100 % 0.00 in /  0 mm 17.5 W/m2 CLR
02:37 49.3 °F /  9.6 °C 49.3 °F /  9.6 °C 30.11 in /  1019.5 hPa Calm     100 % 0.00 in /  0 mm 20.0 W/m2 CLR
02:42 49.1 °F /  9.5 °C 49.1 °F /  9.5 °C 30.11 in /  1019.5 hPa Calm     100 % 0.00 in /  0 mm 0.0 W/m2 CLR
02:48 49.1 °F /  9.5 °C 49.1 °F /  9.5 °C 30.12 in /  1019.9 hPa Calm     100 % 0.00 in /  0 mm 15.0 W/m2 CLR
02:53 49.5 °F /  9.7 °C 49.5 °F /  9.7 °C 30.11 in /  1019.5 hPa Calm     100 % 0.00 in /  0 mm 22.5 W/m2 CLR
02:58 49.5 °F /  9.7 °C 49.5 °F /  9.7 °C 30.11 in /  1019.5 hPa Calm     100 % 0.00 in /  0 mm 0.0 W/m2 CLR
03:03 49.1 °F /  9.5 °C 49.1 °F /  9.5 °C 30.12 in /  1019.9 hPa Calm     100 % 0.00 in /  0 mm 17.5 W/m2 CLR
03:08 48.9 °F /  9.4 °C 48.9 °F /  9.4 °C 30.13 in /  1020.2 hPa Calm     100 % 0.00 in /  0 mm 0.0 W/m2 CLR
03:13 48.9 °F /  9.4 °C 48.9 °F /  9.4 °C 30.12 in /  1019.9 hPa Calm     100 % 0.00 in /  0 mm 0.0 W/m2 CLR
03:18 48.6 °F /  9.2 °C 48.6 °F /  9.2 °C 30.13 in /  1020.2 hPa Calm     100 % 0.00 in /  0 mm 22.5 W/m2 CLR
03:19 48.6 °F /  9.2 °C 48.6 °F /  9.2 °C 30.14 in /  1020.5 hPa Calm     100 % 0.00 in /  0 mm 17.5 W/m2 CLR
03:24 48.6 °F /  9.2 °C 48.6 °F /  9.2 °C 30.14 in /  1020.5 hPa Calm     100 % 0.00 in /  0 mm 0.0 W/m2 CLR
03:29 48.0 °F /  8.9 °C 48.0 °F /  8.9 °C 30.14 in /  1020.5 hPa Calm     100 % 0.00 in /  0 mm 0.0 W/m2 CLR
03:34 48.0 °F /  8.9 °C 48.0 °F /  8.9 °C 30.14 in /  1020.5 hPa Calm     100 % 0.00 in /  0 mm 20.0 W/m2 CLR
03:39 48.0 °F /  8.9 °C 48.0 °F /  8.9 °C 30.14 in /  1020.5 hPa Calm     100 % 0.00 in /  0 mm 0.0 W/m2 CLR
03:44 48.2 °F /  9 °C 48.2 °F /  9 °C 30.14 in /  1020.5 hPa Calm     100 % 0.00 in /  0 mm 0.0 W/m2 CLR
03:49 48.0 °F /  8.9 °C 48.0 °F /  8.9 °C 30.14 in /  1020.5 hPa WSW 2.3 mph /  3.7 km/h 2.3 mph /  3.7 km/h 100 % 0.00 in /  0 mm 15.0 W/m2 CLR
03:54 48.2 °F /  9 °C 48.2 °F /  9 °C 30.14 in /  1020.5 hPa Calm     100 % 0.00 in /  0 mm 0.0 W/m2 CLR
03:59 48.6 °F /  9.2 °C 48.6 °F /  9.2 °C 30.14 in /  1020.5 hPa Calm     100 % 0.00 in /  0 mm 0.0 W/m2 CLR
04:04 48.6 °F /  9.2 °C 48.6 °F /  9.2 °C 30.14 in /  1020.5 hPa Calm     100 % 0.00 in /  0 mm 20.0 W/m2 CLR
04:09 48.6 °F /  9.2 °C 48.6 °F /  9.2 °C 30.12 in /  1019.9 hPa Calm     100 % 0.00 in /  0 mm 0.0 W/m2 CLR
04:16 48.9 °F /  9.4 °C 48.9 °F /  9.4 °C 30.14 in /  1020.5 hPa Calm     100 % 0.00 in /  0 mm 17.5 W/m2 CLR
04:21 48.9 °F /  9.4 °C 48.9 °F /  9.4 °C 30.14 in /  1020.5 hPa Calm     100 % 0.00 in /  0 mm 20.0 W/m2 CLR
04:22 48.9 °F /  9.4 °C 48.9 °F /  9.4 °C 30.14 in /  1020.5 hPa Calm     100 % 0.00 in /  0 mm 15.0 W/m2 CLR
04:23 48.7 °F /  9.3 °C 48.7 °F /  9.3 °C 30.14 in /  1020.5 hPa Calm     100 % 0.00 in /  0 mm 0.0 W/m2 CLR
04:28 48.7 °F /  9.3 °C 48.7 °F /  9.3 °C 30.14 in /  1020.5 hPa Calm     100 % 0.00 in /  0 mm 0.0 W/m2 CLR
04:30 48.7 °F /  9.3 °C 48.7 °F /  9.3 °C 30.14 in /  1020.5 hPa Calm     100 % 0.00 in /  0 mm 0.0 W/m2 CLR
04:35 48.7 °F /  9.3 °C 48.7 °F /  9.3 °C 30.14 in /  1020.5 hPa Calm     100 % 0.00 in /  0 mm 17.5 W/m2 CLR
04:40 48.6 °F /  9.2 °C 48.6 °F /  9.2 °C 30.14 in /  1020.5 hPa Calm     100 % 0.00 in /  0 mm 0.0 W/m2 CLR
04:45 48.4 °F /  9.1 °C 48.4 °F /  9.1 °C 30.14 in /  1020.5 hPa Calm     100 % 0.00 in /  0 mm 0.0 W/m2 CLR
04:50 48.2 °F /  9 °C 48.2 °F /  9 °C 30.14 in /  1020.5 hPa Calm     100 % 0.00 in /  0 mm 17.5 W/m2 CLR
04:55 48.0 °F /  8.9 °C 48.0 °F /  8.9 °C 30.14 in /  1020.5 hPa Calm     100 % 0.00 in /  0 mm 0.0 W/m2 CLR
05:00 48.0 °F /  8.9 °C 48.0 °F /  8.9 °C 30.13 in /  1020.2 hPa Calm     100 % 0.00 in /  0 mm 0.0 W/m2 CLR
05:05 48.0 °F /  8.9 °C 48.0 °F /  8.9 °C 30.13 in /  1020.2 hPa Calm     100 % 0.00 in /  0 mm 0.0 W/m2 CLR
05:10 48.0 °F /  8.9 °C 48.0 °F /  8.9 °C 30.14 in /  1020.5 hPa Calm     100 % 0.00 in /  0 mm 0.0 W/m2 CLR
05:15 47.8 °F /  8.8 °C 47.8 °F /  8.8 °C 30.14 in /  1020.5 hPa Calm     100 % 0.00 in /  0 mm 15.0 W/m2 CLR
05:20 48.2 °F /  9 °C 48.2 °F /  9 °C 30.14 in /  1020.5 hPa Calm     100 % 0.00 in /  0 mm 0.0 W/m2 CLR
05:25 48.4 °F /  9.1 °C 48.4 °F /  9.1 °C 30.13 in /  1020.2 hPa Calm     100 % 0.00 in /  0 mm 0.0 W/m2 CLR
05:30 48.4 °F /  9.1 °C 48.4 °F /  9.1 °C 30.13 in /  1020.2 hPa Calm     100 % 0.00 in /  0 mm 15.0 W/m2 CLR
05:35 48.4 °F /  9.1 °C 48.4 °F /  9.1 °C 30.13 in /  1020.2 hPa Calm     100 % 0.00 in /  0 mm 0.0 W/m2 CLR
05:40 48.7 °F /  9.3 °C 48.7 °F /  9.3 °C 30.13 in /  1020.2 hPa WSW 1.8 mph /  2.9 km/h 1.8 mph /  2.9 km/h 100 % 0.00 in /  0 mm 0.0 W/m2 CLR
05:45 48.6 °F /  9.2 °C 48.6 °F /  9.2 °C 30.13 in /  1020.2 hPa Calm     100 % 0.00 in /  0 mm 0.0 W/m2 CLR
05:50 48.4 °F /  9.1 °C 48.4 °F /  9.1 °C 30.12 in /  1019.9 hPa Calm     100 % 0.00 in /  0 mm 0.0 W/m2 CLR
05:55 48.2 °F /  9 °C 48.2 °F /  9 °C 30.13 in /  1020.2 hPa Calm     100 % 0.00 in /  0 mm 25.0 W/m2 CLR
06:00 48.2 °F /  9 °C 48.2 °F /  9 °C 30.13 in /  1020.2 hPa Calm     100 % 0.00 in /  0 mm 30.0 W/m2 CLR
06:05 48.2 °F /  9 °C 48.2 °F /  9 °C 30.13 in /  1020.2 hPa Calm     100 % 0.00 in /  0 mm 0.0 W/m2 CLR
06:11 48.4 °F /  9.1 °C 48.4 °F /  9.1 °C 30.13 in /  1020.2 hPa Calm     100 % 0.00 in /  0 mm 0.2 W/m2 CLR
06:16 48.6 °F /  9.2 °C 48.6 °F /  9.2 °C 30.12 in /  1019.9 hPa Calm     100 % 0.00 in /  0 mm 20.0 W/m2 CLR
06:21 48.6 °F /  9.2 °C 48.6 °F /  9.2 °C 30.14 in /  1020.5 hPa Calm     100 % 0.00 in /  0 mm 0.7 W/m2 CLR
06:26 48.6 °F /  9.2 °C 48.6 °F /  9.2 °C 30.13 in /  1020.2 hPa Calm     100 % 0.00 in /  0 mm 1.3 W/m2 CLR
06:31 48.7 °F /  9.3 °C 48.7 °F /  9.3 °C 30.13 in /  1020.2 hPa Calm     100 % 0.00 in /  0 mm 20.0 W/m2 CLR
06:36 48.9 °F /  9.4 °C 48.9 °F /  9.4 °C 30.13 in /  1020.2 hPa Calm     100 % 0.00 in /  0 mm 2.5 W/m2 CLR
06:41 48.9 °F /  9.4 °C 48.9 °F /  9.4 °C 30.13 in /  1020.2 hPa Calm     100 % 0.00 in /  0 mm 3.2 W/m2 CLR
06:46 49.5 °F /  9.7 °C 49.5 °F /  9.7 °C 30.14 in /  1020.5 hPa Calm     100 % 0.00 in /  0 mm 60.0 W/m2 CLR
06:51 49.3 °F /  9.6 °C 49.3 °F /  9.6 °C 30.13 in /  1020.2 hPa Calm     100 % 0.00 in /  0 mm 6.8 W/m2 CLR
06:56 49.5 °F /  9.7 °C 49.5 °F /  9.7 °C 30.13 in /  1020.2 hPa Calm     100 % 0.00 in /  0 mm 9.6 W/m2 CLR
07:01 49.8 °F /  9.9 °C 49.8 °F /  9.9 °C 30.14 in /  1020.5 hPa Calm     100 % 0.00 in /  0 mm 67.5 W/m2 OVC
07:06 50.4 °F /  10.2 °C 50.4 °F /  10.2 °C 30.13 in /  1020.2 hPa Calm     100 % 0.00 in /  0 mm 14.5 W/m2 OVC
07:11 50.4 °F /  10.2 °C 50.4 °F /  10.2 °C 30.13 in /  1020.2 hPa Calm     100 % 0.00 in /  0 mm 19.9 W/m2 OVC
07:16 50.7 °F /  10.4 °C 50.7 °F /  10.4 °C 30.14 in /  1020.5 hPa Calm     100 % 0.00 in /  0 mm 90.0 W/m2 OVC
07:21 50.9 °F /  10.5 °C 50.9 °F /  10.5 °C 30.14 in /  1020.5 hPa Calm     100 % 0.00 in /  0 mm 26.3 W/m2 OVC
07:26 51.6 °F /  10.9 °C 51.6 °F /  10.9 °C 30.16 in /  1021.2 hPa Calm     100 % 0.00 in /  0 mm 31.3 W/m2 OVC
07:31 52.0 °F /  11.1 °C 52.0 °F /  11.1 °C 30.14 in /  1020.5 hPa Calm     100 % 0.00 in /  0 mm 105.0 W/m2 OVC
07:36 52.5 °F /  11.4 °C 52.5 °F /  11.4 °C 30.15 in /  1020.9 hPa West 3.5 mph /  5.6 km/h 3.5 mph /  5.6 km/h 100 % 0.00 in /  0 mm 38.4 W/m2 OVC
07:41 52.5 °F /  11.4 °C 52.5 °F /  11.4 °C 30.17 in /  1021.6 hPa WSW 1.2 mph /  1.9 km/h 1.2 mph /  1.9 km/h 100 % 0.00 in /  0 mm 40.8 W/m2 OVC
07:46 52.9 °F /  11.6 °C 52.9 °F /  11.6 °C 30.17 in /  1021.6 hPa Calm     100 % 0.00 in /  0 mm 43.5 W/m2 OVC
07:51 53.2 °F /  11.8 °C 53.2 °F /  11.8 °C 30.17 in /  1021.6 hPa NNW 2.3 mph /  3.7 km/h 2.3 mph /  3.7 km/h 100 % 0.00 in /  0 mm 43.6 W/m2 OVC
07:57 53.6 °F /  12 °C 53.6 °F /  12 °C 30.17 in /  1021.6 hPa Calm     100 % 0.00 in /  0 mm 42.7 W/m2 OVC
08:02 53.4 °F /  11.9 °C 53.4 °F /  11.9 °C 30.18 in /  1021.9 hPa SW 0.7 mph /  1.1 km/h   100 % 0.00 in /  0 mm 48.0 W/m2 OVC
08:07 53.4 °F /  11.9 °C 53.4 °F /  11.9 °C 30.17 in /  1021.6 hPa Calm     100 % 0.00 in /  0 mm 51.2 W/m2 OVC
08:12 53.4 °F /  11.9 °C 53.4 °F /  11.9 °C 30.18 in /  1021.9 hPa Calm     100 % 0.00 in /  0 mm 107.5 W/m2 OVC
08:17 53.6 °F /  12 °C 53.6 °F /  12 °C 30.17 in /  1021.6 hPa WNW 1.2 mph /  1.9 km/h 1.2 mph /  1.9 km/h 100 % 0.00 in /  0 mm 58.2 W/m2 OVC
08:22 53.8 °F /  12.1 °C 53.8 °F /  12.1 °C 30.17 in /  1021.6 hPa Calm     100 % 0.00 in /  0 mm 61.3 W/m2 OVC
08:27 54.3 °F /  12.4 °C 54.3 °F /  12.4 °C 30.17 in /  1021.6 hPa SW 3.5 mph /  5.6 km/h 3.5 mph /  5.6 km/h 100 % 0.00 in /  0 mm 142.5 W/m2 OVC
08:32 54.3 °F /  12.4 °C 54.3 °F /  12.4 °C 30.18 in /  1021.9 hPa West 4.6 mph /  7.4 km/h 4.6 mph /  7.4 km/h 100 % 0.00 in /  0 mm 69.6 W/m2 OVC
08:37 54.7 °F /  12.6 °C 54.4 °F /  12.4 °C 30.19 in /  1022.2 hPa Calm     99 % 0.00 in /  0 mm 72.7 W/m2 OVC
08:42 54.9 °F /  12.7 °C 54.3 °F /  12.4 °C 30.17 in /  1021.6 hPa SE 3.5 mph /  5.6 km/h 3.5 mph /  5.6 km/h 98 % 0.00 in /  0 mm 155.0 W/m2 OVC
08:47 54.7 °F /  12.6 °C 54.7 °F /  12.6 °C 30.17 in /  1021.6 hPa South 3.5 mph /  5.6 km/h 3.5 mph /  5.6 km/h 100 % 0.00 in /  0 mm 87.1 W/m2 OVC
08:52 54.9 °F /  12.7 °C 54.6 °F /  12.6 °C 30.18 in /  1021.9 hPa Calm     99 % 0.00 in /  0 mm 92.9 W/m2 OVC
08:57 55.2 °F /  12.9 °C 54.4 °F /  12.4 °C 30.18 in /  1021.9 hPa West 2.5 mph /  4 km/h 2.5 mph /  4 km/h 97 % 0.00 in /  0 mm 155.0 W/m2 BKN
Wether-Above
Compliments of Weather Underground - 1.25 mb
Welcome to Weather-Above
Cheddleton weather station supplies various organisations with data from our weather station one of them is the weather Underground this information displayed here is coming from the weather Underground server 

If any information is used please acknowledge the source to www weather-above.com or weather Underground